sensor_id;sensor_type;location;lat;lon;timestamp;P1;durP1;ratioP1;P2;durP2;ratioP2
13252;SDS011;6693;54.370;10.132;2024-03-23T00:53:39;14.25;;;1.83;;
13252;SDS011;6693;54.370;10.132;2024-03-23T00:54:40;15.80;;;2.95;;
13252;SDS011;6693;54.370;10.132;2024-03-23T00:55:40;18.73;;;2.78;;
13252;SDS011;6693;54.370;10.132;2024-03-23T00:56:41;17.55;;;2.20;;
13252;SDS011;6693;54.370;10.132;2024-03-23T00:57:42;14.55;;;1.98;;
13252;SDS011;6693;54.370;10.132;2024-03-23T00:58:43;17.95;;;2.65;;
13252;SDS011;6693;54.370;10.132;2024-03-23T00:59:44;16.27;;;2.33;;
13252;SDS011;6693;54.370;10.132;2024-03-23T01:00:45;19.48;;;2.13;;
13252;SDS011;6693;54.370;10.132;2024-03-23T01:01:45;14.90;;;2.70;;
13252;SDS011;6693;54.370;10.132;2024-03-23T01:02:46;15.85;;;1.65;;
13252;SDS011;6693;54.370;10.132;2024-03-23T01:03:47;16.70;;;2.22;;
13252;SDS011;6693;54.370;10.132;2024-03-23T01:04:48;10.13;;;2.15;;
13252;SDS011;6693;54.370;10.132;2024-03-23T01:05:49;17.42;;;3.90;;
13252;SDS011;6693;54.370;10.132;2024-03-23T01:06:49;19.45;;;3.55;;
13252;SDS011;6693;54.370;10.132;2024-03-23T01:07:50;16.73;;;2.67;;
13252;SDS011;6693;54.370;10.132;2024-03-23T01:08:54;15.88;;;2.38;;
13252;SDS011;6693;54.370;10.132;2024-03-23T01:09:55;19.38;;;2.63;;
13252;SDS011;6693;54.370;10.132;2024-03-23T01:10:55;21.65;;;3.17;;
13252;SDS011;6693;54.370;10.132;2024-03-23T01:11:56;15.88;;;2.92;;
13252;SDS011;6693;54.370;10.132;2024-03-23T01:12:57;15.63;;;2.50;;
13252;SDS011;6693;54.370;10.132;2024-03-23T01:13:58;16.92;;;2.67;;
13252;SDS011;6693;54.370;10.132;2024-03-23T01:14:59;11.98;;;2.00;;
13252;SDS011;6693;54.370;10.132;2024-03-23T01:16:00;19.77;;;2.63;;
13252;SDS011;6693;54.370;10.132;2024-03-23T01:17:00;12.52;;;2.45;;
13252;SDS011;6693;54.370;10.132;2024-03-23T01:18:01;13.05;;;1.75;;
13252;SDS011;6693;54.370;10.132;2024-03-23T01:19:02;16.98;;;2.08;;
13252;SDS011;6693;54.370;10.132;2024-03-23T01:20:03;17.63;;;2.90;;
13252;SDS011;6693;54.370;10.132;2024-03-23T01:21:05;14.75;;;1.83;;
13252;SDS011;6693;54.370;10.132;2024-03-23T01:22:05;13.05;;;2.13;;
13252;SDS011;6693;54.370;10.132;2024-03-23T01:23:06;16.30;;;2.00;;
13252;SDS011;6693;54.370;10.132;2024-03-23T01:24:10;15.30;;;2.70;;
13252;SDS011;6693;54.370;10.132;2024-03-23T01:25:11;19.98;;;3.45;;
13252;SDS011;6693;54.370;10.132;2024-03-23T01:26:12;14.30;;;2.60;;
13252;SDS011;6693;54.370;10.132;2024-03-23T01:27:12;13.55;;;2.80;;
13252;SDS011;6693;54.370;10.132;2024-03-23T01:28:13;11.45;;;2.17;;
13252;SDS011;6693;54.370;10.132;2024-03-23T01:29:14;15.15;;;4.85;;
13252;SDS011;6693;54.370;10.132;2024-03-23T01:30:15;14.27;;;2.72;;
13252;SDS011;6693;54.370;10.132;2024-03-23T01:31:16;17.33;;;1.95;;
13252;SDS011;6693;54.370;10.132;2024-03-23T01:32:17;13.80;;;2.60;;
13252;SDS011;6693;54.370;10.132;2024-03-23T01:33:17;17.35;;;3.45;;
13252;SDS011;6693;54.370;10.132;2024-03-23T01:34:18;12.15;;;2.05;;
13252;SDS011;6693;54.370;10.132;2024-03-23T01:35:19;13.15;;;2.15;;
13252;SDS011;6693;54.370;10.132;2024-03-23T01:36:20;11.45;;;2.35;;
13252;SDS011;6693;54.370;10.132;2024-03-23T01:37:21;14.35;;;2.25;;
13252;SDS011;6693;54.370;10.132;2024-03-23T01:38:22;12.68;;;1.60;;
13252;SDS011;6693;54.370;10.132;2024-03-23T01:39:25;13.20;;;2.13;;
13252;SDS011;6693;54.370;10.132;2024-03-23T01:40:26;16.67;;;2.95;;
13252;SDS011;6693;54.370;10.132;2024-03-23T01:41:27;15.63;;;2.55;;
13252;SDS011;6693;54.370;10.132;2024-03-23T01:42:28;15.10;;;3.53;;
13252;SDS011;6693;54.370;10.132;2024-03-23T01:43:29;13.52;;;3.25;;
13252;SDS011;6693;54.370;10.132;2024-03-23T01:44:30;10.15;;;2.25;;
13252;SDS011;6693;54.370;10.132;2024-03-23T01:45:31;15.65;;;3.08;;
13252;SDS011;6693;54.370;10.132;2024-03-23T01:46:31;15.90;;;3.25;;
13252;SDS011;6693;54.370;10.132;2024-03-23T01:47:32;16.92;;;3.47;;
13252;SDS011;6693;54.370;10.132;2024-03-23T01:48:33;13.23;;;2.40;;
13252;SDS011;6693;54.370;10.132;2024-03-23T01:49:34;16.58;;;3.03;;
13252;SDS011;6693;54.370;10.132;2024-03-23T01:50:35;17.10;;;2.70;;
13252;SDS011;6693;54.370;10.132;2024-03-23T01:51:36;15.88;;;2.33;;
13252;SDS011;6693;54.370;10.132;2024-03-23T01:52:37;15.02;;;2.35;;
13252;SDS011;6693;54.370;10.132;2024-03-23T01:53:38;17.33;;;1.88;;
13252;SDS011;6693;54.370;10.132;2024-03-23T01:54:42;11.35;;;2.22;;
13252;SDS011;6693;54.370;10.132;2024-03-23T01:55:43;17.13;;;2.72;;
13252;SDS011;6693;54.370;10.132;2024-03-23T01:56:44;16.58;;;2.75;;
13252;SDS011;6693;54.370;10.132;2024-03-23T01:57:45;17.67;;;2.00;;
13252;SDS011;6693;54.370;10.132;2024-03-23T01:58:46;13.40;;;2.17;;
13252;SDS011;6693;54.370;10.132;2024-03-23T01:59:46;11.02;;;2.05;;
13252;SDS011;6693;54.370;10.132;2024-03-23T02:00:47;13.88;;;1.83;;
13252;SDS011;6693;54.370;10.132;2024-03-23T02:01:48;16.27;;;2.97;;
13252;SDS011;6693;54.370;10.132;2024-03-23T02:02:49;16.73;;;2.50;;
13252;SDS011;6693;54.370;10.132;2024-03-23T02:03:50;18.42;;;2.45;;
13252;SDS011;6693;54.370;10.132;2024-03-23T02:04:51;17.38;;;2.80;;
13252;SDS011;6693;54.370;10.132;2024-03-23T02:05:52;17.30;;;3.00;;
13252;SDS011;6693;54.370;10.132;2024-03-23T02:06:54;18.17;;;2.47;;
13252;SDS011;6693;54.370;10.132;2024-03-23T02:07:54;17.40;;;1.75;;
13252;SDS011;6693;54.370;10.132;2024-03-23T02:08:55;15.18;;;1.98;;
13252;SDS011;6693;54.370;10.132;2024-03-23T02:09:59;19.70;;;2.25;;
13252;SDS011;6693;54.370;10.132;2024-03-23T02:11:00;12.57;;;1.92;;
13252;SDS011;6693;54.370;10.132;2024-03-23T02:12:01;14.00;;;2.35;;
13252;SDS011;6693;54.370;10.132;2024-03-23T02:14:03;11.25;;;2.65;;
13252;SDS011;6693;54.370;10.132;2024-03-23T02:15:04;10.30;;;1.83;;
13252;SDS011;6693;54.370;10.132;2024-03-23T02:16:06;15.30;;;1.90;;
13252;SDS011;6693;54.370;10.132;2024-03-23T02:17:06;13.52;;;1.83;;
13252;SDS011;6693;54.370;10.132;2024-03-23T02:18:07;15.18;;;2.28;;
13252;SDS011;6693;54.370;10.132;2024-03-23T02:19:09;15.02;;;1.92;;
13252;SDS011;6693;54.370;10.132;2024-03-23T02:20:11;17.98;;;2.13;;
13252;SDS011;6693;54.370;10.132;2024-03-23T02:21:12;16.88;;;1.45;;
13252;SDS011;6693;54.370;10.132;2024-03-23T02:22:13;19.60;;;2.78;;
13252;SDS011;6693;54.370;10.132;2024-03-23T02:23:17;14.05;;;2.08;;
13252;SDS011;6693;54.370;10.132;2024-03-23T02:24:18;11.40;;;1.38;;
13252;SDS011;6693;54.370;10.132;2024-03-23T02:25:19;12.20;;;2.08;;
13252;SDS011;6693;54.370;10.132;2024-03-23T02:26:20;13.80;;;1.90;;
13252;SDS011;6693;54.370;10.132;2024-03-23T02:27:21;13.65;;;1.75;;
13252;SDS011;6693;54.370;10.132;2024-03-23T02:28:21;13.43;;;2.03;;
13252;SDS011;6693;54.370;10.132;2024-03-23T02:29:22;15.02;;;1.90;;
13252;SDS011;6693;54.370;10.132;2024-03-23T02:30:23;14.32;;;1.90;;
13252;SDS011;6693;54.370;10.132;2024-03-23T02:31:24;14.32;;;2.15;;
13252;SDS011;6693;54.370;10.132;2024-03-23T02:32:25;15.73;;;2.47;;
13252;SDS011;6693;54.370;10.132;2024-03-23T02:33:26;14.90;;;2.20;;
13252;SDS011;6693;54.370;10.132;2024-03-23T02:34:27;19.75;;;2.78;;
13252;SDS011;6693;54.370;10.132;2024-03-23T02:35:27;14.18;;;2.42;;
13252;SDS011;6693;54.370;10.132;2024-03-23T02:36:28;18.63;;;2.55;;
13252;SDS011;6693;54.370;10.132;2024-03-23T02:37:29;16.17;;;2.58;;
13252;SDS011;6693;54.370;10.132;2024-03-23T02:38:33;15.13;;;1.90;;
13252;SDS011;6693;54.370;10.132;2024-03-23T02:39:33;9.82;;;2.15;;
13252;SDS011;6693;54.370;10.132;2024-03-23T02:40:34;13.50;;;1.35;;
13252;SDS011;6693;54.370;10.132;2024-03-23T02:41:36;14.73;;;2.20;;
13252;SDS011;6693;54.370;10.132;2024-03-23T02:42:37;13.43;;;2.03;;
13252;SDS011;6693;54.370;10.132;2024-03-23T02:43:38;15.38;;;1.80;;
13252;SDS011;6693;54.370;10.132;2024-03-23T02:44:38;12.90;;;2.10;;
13252;SDS011;6693;54.370;10.132;2024-03-23T02:45:39;13.15;;;1.90;;
13252;SDS011;6693;54.370;10.132;2024-03-23T02:46:40;12.20;;;1.20;;
13252;SDS011;6693;54.370;10.132;2024-03-23T02:47:41;16.58;;;2.30;;
13252;SDS011;6693;54.370;10.132;2024-03-23T02:48:42;12.55;;;2.45;;
13252;SDS011;6693;54.370;10.132;2024-03-23T02:49:43;14.77;;;1.67;;
13252;SDS011;6693;54.370;10.132;2024-03-23T02:50:44;11.32;;;2.97;;
13252;SDS011;6693;54.370;10.132;2024-03-23T02:51:44;12.35;;;2.08;;
13252;SDS011;6693;54.370;10.132;2024-03-23T02:52:45;13.65;;;2.90;;
13252;SDS011;6693;54.370;10.132;2024-03-23T02:53:49;14.93;;;2.97;;
13252;SDS011;6693;54.370;10.132;2024-03-23T02:54:50;14.05;;;2.33;;
13252;SDS011;6693;54.370;10.132;2024-03-23T02:55:50;15.85;;;3.08;;
13252;SDS011;6693;54.370;10.132;2024-03-23T02:56:51;14.48;;;3.15;;
13252;SDS011;6693;54.370;10.132;2024-03-23T02:57:52;14.80;;;2.88;;
13252;SDS011;6693;54.370;10.132;2024-03-23T02:58:53;12.95;;;2.03;;
13252;SDS011;6693;54.370;10.132;2024-03-23T02:59:54;15.90;;;3.03;;
13252;SDS011;6693;54.370;10.132;2024-03-23T03:00:55;18.05;;;4.65;;
13252;SDS011;6693;54.370;10.132;2024-03-23T03:01:56;14.45;;;3.00;;
13252;SDS011;6693;54.370;10.132;2024-03-23T03:02:56;21.88;;;4.07;;
13252;SDS011;6693;54.370;10.132;2024-03-23T03:03:57;15.15;;;2.78;;
13252;SDS011;6693;54.370;10.132;2024-03-23T03:04:58;11.48;;;2.33;;
13252;SDS011;6693;54.370;10.132;2024-03-23T03:05:59;15.45;;;2.83;;
13252;SDS011;6693;54.370;10.132;2024-03-23T03:07:00;16.85;;;2.95;;
13252;SDS011;6693;54.370;10.132;2024-03-23T03:08:01;12.40;;;2.10;;
13252;SDS011;6693;54.370;10.132;2024-03-23T03:09:04;15.60;;;2.30;;
13252;SDS011;6693;54.370;10.132;2024-03-23T03:10:05;13.63;;;2.38;;
13252;SDS011;6693;54.370;10.132;2024-03-23T03:11:07;14.10;;;2.13;;
13252;SDS011;6693;54.370;10.132;2024-03-23T03:12:08;12.48;;;2.63;;
13252;SDS011;6693;54.370;10.132;2024-03-23T03:13:08;14.90;;;2.80;;
13252;SDS011;6693;54.370;10.132;2024-03-23T03:14:09;14.75;;;1.88;;
13252;SDS011;6693;54.370;10.132;2024-03-23T03:15:10;17.15;;;2.83;;
13252;SDS011;6693;54.370;10.132;2024-03-23T03:16:11;15.20;;;2.35;;
13252;SDS011;6693;54.370;10.132;2024-03-23T03:17:12;18.75;;;2.33;;
13252;SDS011;6693;54.370;10.132;2024-03-23T03:18:13;12.93;;;1.95;;
13252;SDS011;6693;54.370;10.132;2024-03-23T03:19:14;16.27;;;2.30;;
13252;SDS011;6693;54.370;10.132;2024-03-23T03:20:15;11.02;;;2.10;;
13252;SDS011;6693;54.370;10.132;2024-03-23T03:21:16;13.27;;;2.00;;
13252;SDS011;6693;54.370;10.132;2024-03-23T03:22:17;13.25;;;2.42;;
13252;SDS011;6693;54.370;10.132;2024-03-23T03:23:17;15.13;;;2.05;;
13252;SDS011;6693;54.370;10.132;2024-03-23T03:24:21;14.57;;;2.55;;
13252;SDS011;6693;54.370;10.132;2024-03-23T03:25:22;13.13;;;1.98;;
13252;SDS011;6693;54.370;10.132;2024-03-23T03:26:23;18.13;;;2.25;;
13252;SDS011;6693;54.370;10.132;2024-03-23T03:27:24;11.98;;;1.20;;
13252;SDS011;6693;54.370;10.132;2024-03-23T03:28:24;16.45;;;2.60;;
13252;SDS011;6693;54.370;10.132;2024-03-23T03:29:26;12.95;;;1.90;;
13252;SDS011;6693;54.370;10.132;2024-03-23T03:30:27;11.27;;;2.38;;
13252;SDS011;6693;54.370;10.132;2024-03-23T03:31:27;18.83;;;1.90;;
13252;SDS011;6693;54.370;10.132;2024-03-23T03:32:30;12.80;;;2.22;;
13252;SDS011;6693;54.370;10.132;2024-03-23T03:33:31;12.88;;;1.80;;
13252;SDS011;6693;54.370;10.132;2024-03-23T03:34:32;14.88;;;2.30;;
13252;SDS011;6693;54.370;10.132;2024-03-23T03:35:32;18.17;;;2.58;;
13252;SDS011;6693;54.370;10.132;2024-03-23T03:36:33;13.90;;;2.10;;
13252;SDS011;6693;54.370;10.132;2024-03-23T03:37:34;14.48;;;2.13;;
13252;SDS011;6693;54.370;10.132;2024-03-23T03:38:35;15.68;;;2.22;;
13252;SDS011;6693;54.370;10.132;2024-03-23T03:39:38;15.45;;;2.60;;
13252;SDS011;6693;54.370;10.132;2024-03-23T03:40:39;20.10;;;2.90;;
13252;SDS011;6693;54.370;10.132;2024-03-23T03:41:42;14.55;;;1.50;;
13252;SDS011;6693;54.370;10.132;2024-03-23T03:42:43;13.52;;;2.08;;
13252;SDS011;6693;54.370;10.132;2024-03-23T03:43:44;16.17;;;3.20;;
13252;SDS011;6693;54.370;10.132;2024-03-23T03:44:45;15.10;;;2.35;;
13252;SDS011;6693;54.370;10.132;2024-03-23T03:45:51;15.20;;;2.20;;
13252;SDS011;6693;54.370;10.132;2024-03-23T03:46:52;13.48;;;1.60;;
13252;SDS011;6693;54.370;10.132;2024-03-23T03:47:53;15.43;;;1.77;;
13252;SDS011;6693;54.370;10.132;2024-03-23T03:48:54;17.30;;;2.65;;
13252;SDS011;6693;54.370;10.132;2024-03-23T03:49:55;16.63;;;2.47;;
13252;SDS011;6693;54.370;10.132;2024-03-23T03:50:55;17.95;;;6.10;;
13252;SDS011;6693;54.370;10.132;2024-03-23T03:51:56;14.73;;;2.33;;
13252;SDS011;6693;54.370;10.132;2024-03-23T03:52:57;11.88;;;2.38;;
13252;SDS011;6693;54.370;10.132;2024-03-23T03:53:58;16.23;;;2.30;;
13252;SDS011;6693;54.370;10.132;2024-03-23T03:55:03;13.38;;;2.40;;
13252;SDS011;6693;54.370;10.132;2024-03-23T03:56:12;13.82;;;2.25;;
13252;SDS011;6693;54.370;10.132;2024-03-23T03:57:13;12.35;;;2.08;;
13252;SDS011;6693;54.370;10.132;2024-03-23T03:58:14;13.10;;;2.35;;
13252;SDS011;6693;54.370;10.132;2024-03-23T03:59:17;12.93;;;2.10;;
13252;SDS011;6693;54.370;10.132;2024-03-23T04:00:18;14.35;;;2.03;;
13252;SDS011;6693;54.370;10.132;2024-03-23T04:01:19;16.58;;;2.30;;
13252;SDS011;6693;54.370;10.132;2024-03-23T04:02:20;14.80;;;2.60;;
13252;SDS011;6693;54.370;10.132;2024-03-23T04:03:21;11.63;;;2.70;;
13252;SDS011;6693;54.370;10.132;2024-03-23T04:04:21;17.80;;;2.40;;
13252;SDS011;6693;54.370;10.132;2024-03-23T04:05:22;13.35;;;1.55;;
13252;SDS011;6693;54.370;10.132;2024-03-23T04:06:23;15.25;;;2.65;;
13252;SDS011;6693;54.370;10.132;2024-03-23T04:07:24;18.13;;;2.60;;
13252;SDS011;6693;54.370;10.132;2024-03-23T04:08:25;13.18;;;2.40;;
13252;SDS011;6693;54.370;10.132;2024-03-23T04:09:26;14.38;;;2.35;;
13252;SDS011;6693;54.370;10.132;2024-03-23T04:10:29;16.60;;;2.85;;
13252;SDS011;6693;54.370;10.132;2024-03-23T04:11:30;17.20;;;1.80;;
13252;SDS011;6693;54.370;10.132;2024-03-23T04:12:31;11.57;;;2.28;;
13252;SDS011;6693;54.370;10.132;2024-03-23T04:13:32;13.15;;;2.50;;
13252;SDS011;6693;54.370;10.132;2024-03-23T04:14:32;16.15;;;2.15;;
13252;SDS011;6693;54.370;10.132;2024-03-23T04:15:33;18.70;;;2.55;;
13252;SDS011;6693;54.370;10.132;2024-03-23T04:16:34;17.10;;;2.30;;
13252;SDS011;6693;54.370;10.132;2024-03-23T04:17:36;13.93;;;2.40;;
13252;SDS011;6693;54.370;10.132;2024-03-23T04:18:37;16.10;;;2.40;;
13252;SDS011;6693;54.370;10.132;2024-03-23T04:19:38;14.50;;;1.98;;
13252;SDS011;6693;54.370;10.132;2024-03-23T04:20:38;14.82;;;2.10;;
13252;SDS011;6693;54.370;10.132;2024-03-23T04:21:40;11.63;;;2.15;;
13252;SDS011;6693;54.370;10.132;2024-03-23T04:22:41;15.68;;;2.20;;
13252;SDS011;6693;54.370;10.132;2024-03-23T04:23:42;14.48;;;2.47;;
13252;SDS011;6693;54.370;10.132;2024-03-23T04:24:43;21.70;;;2.40;;
13252;SDS011;6693;54.370;10.132;2024-03-23T04:25:46;11.95;;;2.17;;
13252;SDS011;6693;54.370;10.132;2024-03-23T04:26:47;14.75;;;1.88;;
13252;SDS011;6693;54.370;10.132;2024-03-23T04:27:48;14.55;;;2.45;;
13252;SDS011;6693;54.370;10.132;2024-03-23T04:28:49;14.05;;;2.33;;
13252;SDS011;6693;54.370;10.132;2024-03-23T04:29:50;12.27;;;2.97;;
13252;SDS011;6693;54.370;10.132;2024-03-23T04:30:51;11.90;;;1.20;;
13252;SDS011;6693;54.370;10.132;2024-03-23T04:31:52;16.30;;;3.50;;
13252;SDS011;6693;54.370;10.132;2024-03-23T04:32:52;15.13;;;2.42;;
13252;SDS011;6693;54.370;10.132;2024-03-23T04:33:53;16.02;;;2.60;;
13252;SDS011;6693;54.370;10.132;2024-03-23T04:34:54;15.80;;;3.20;;
13252;SDS011;6693;54.370;10.132;2024-03-23T04:35:55;16.83;;;2.95;;
13252;SDS011;6693;54.370;10.132;2024-03-23T04:36:56;16.35;;;2.28;;
13252;SDS011;6693;54.370;10.132;2024-03-23T04:37:57;12.00;;;2.40;;
13252;SDS011;6693;54.370;10.132;2024-03-23T04:38:59;17.58;;;2.63;;
13252;SDS011;6693;54.370;10.132;2024-03-23T04:40:00;15.27;;;2.47;;
13252;SDS011;6693;54.370;10.132;2024-03-23T04:41:04;16.45;;;2.58;;
13252;SDS011;6693;54.370;10.132;2024-03-23T04:42:05;15.90;;;2.20;;
13252;SDS011;6693;54.370;10.132;2024-03-23T04:43:06;16.52;;;2.85;;
13252;SDS011;6693;54.370;10.132;2024-03-23T04:44:07;14.15;;;2.00;;
13252;SDS011;6693;54.370;10.132;2024-03-23T04:45:08;15.13;;;2.53;;
13252;SDS011;6693;54.370;10.132;2024-03-23T04:46:09;15.75;;;2.20;;
13252;SDS011;6693;54.370;10.132;2024-03-23T04:47:10;19.17;;;2.67;;
13252;SDS011;6693;54.370;10.132;2024-03-23T04:48:11;15.38;;;2.63;;
13252;SDS011;6693;54.370;10.132;2024-03-23T04:49:12;15.30;;;2.05;;
13252;SDS011;6693;54.370;10.132;2024-03-23T04:50:13;11.27;;;2.78;;
13252;SDS011;6693;54.370;10.132;2024-03-23T04:51:19;13.63;;;2.95;;
13252;SDS011;6693;54.370;10.132;2024-03-23T04:52:21;14.88;;;2.42;;
13252;SDS011;6693;54.370;10.132;2024-03-23T04:53:22;16.88;;;2.00;;
13252;SDS011;6693;54.370;10.132;2024-03-23T04:54:23;15.88;;;3.10;;
13252;SDS011;6693;54.370;10.132;2024-03-23T04:55:24;12.82;;;2.47;;
13252;SDS011;6693;54.370;10.132;2024-03-23T04:56:27;16.27;;;2.92;;
13252;SDS011;6693;54.370;10.132;2024-03-23T04:57:28;15.90;;;2.60;;
13252;SDS011;6693;54.370;10.132;2024-03-23T04:58:29;15.88;;;2.80;;
13252;SDS011;6693;54.370;10.132;2024-03-23T04:59:30;19.17;;;3.58;;
13252;SDS011;6693;54.370;10.132;2024-03-23T05:00:30;15.82;;;3.08;;
13252;SDS011;6693;54.370;10.132;2024-03-23T05:01:31;11.35;;;2.35;;
13252;SDS011;6693;54.370;10.132;2024-03-23T05:02:32;11.25;;;2.17;;
13252;SDS011;6693;54.370;10.132;2024-03-23T05:03:33;12.18;;;2.70;;
13252;SDS011;6693;54.370;10.132;2024-03-23T05:04:35;15.63;;;2.83;;
13252;SDS011;6693;54.370;10.132;2024-03-23T05:05:36;14.82;;;3.42;;
13252;SDS011;6693;54.370;10.132;2024-03-23T05:06:36;17.60;;;2.97;;
13252;SDS011;6693;54.370;10.132;2024-03-23T05:07:37;19.98;;;2.85;;
13252;SDS011;6693;54.370;10.132;2024-03-23T05:08:38;13.25;;;2.72;;
13252;SDS011;6693;54.370;10.132;2024-03-23T05:09:39;14.63;;;2.75;;
13252;SDS011;6693;54.370;10.132;2024-03-23T05:10:40;13.77;;;2.97;;
13252;SDS011;6693;54.370;10.132;2024-03-23T05:11:44;14.10;;;2.95;;
13252;SDS011;6693;54.370;10.132;2024-03-23T05:12:45;16.73;;;2.60;;
13252;SDS011;6693;54.370;10.132;2024-03-23T05:13:46;16.90;;;3.15;;
13252;SDS011;6693;54.370;10.132;2024-03-23T05:14:47;14.77;;;3.17;;
13252;SDS011;6693;54.370;10.132;2024-03-23T05:15:50;17.27;;;3.13;;
13252;SDS011;6693;54.370;10.132;2024-03-23T05:16:53;18.77;;;3.45;;
13252;SDS011;6693;54.370;10.132;2024-03-23T05:17:54;13.15;;;2.83;;
13252;SDS011;6693;54.370;10.132;2024-03-23T05:18:55;18.58;;;3.35;;
13252;SDS011;6693;54.370;10.132;2024-03-23T05:19:56;14.60;;;3.47;;
13252;SDS011;6693;54.370;10.132;2024-03-23T05:20:57;18.70;;;3.35;;
13252;SDS011;6693;54.370;10.132;2024-03-23T05:21:58;15.43;;;3.00;;
13252;SDS011;6693;54.370;10.132;2024-03-23T05:22:59;15.38;;;3.55;;
13252;SDS011;6693;54.370;10.132;2024-03-23T05:24:00;14.10;;;3.45;;
13252;SDS011;6693;54.370;10.132;2024-03-23T05:25:01;16.73;;;2.70;;
13252;SDS011;6693;54.370;10.132;2024-03-23T05:26:03;16.10;;;3.40;;
13252;SDS011;6693;54.370;10.132;2024-03-23T05:27:06;23.10;;;3.58;;
13252;SDS011;6693;54.370;10.132;2024-03-23T05:28:07;16.50;;;3.20;;
13252;SDS011;6693;54.370;10.132;2024-03-23T05:29:08;16.52;;;3.53;;
13252;SDS011;6693;54.370;10.132;2024-03-23T05:31:11;14.68;;;2.60;;
13252;SDS011;6693;54.370;10.132;2024-03-23T05:32:12;17.63;;;3.80;;
13252;SDS011;6693;54.370;10.132;2024-03-23T05:33:13;25.63;;;3.55;;
13252;SDS011;6693;54.370;10.132;2024-03-23T05:34:13;15.55;;;3.35;;
13252;SDS011;6693;54.370;10.132;2024-03-23T05:35:14;19.30;;;2.95;;
13252;SDS011;6693;54.370;10.132;2024-03-23T05:36:15;20.55;;;3.58;;
13252;SDS011;6693;54.370;10.132;2024-03-23T05:37:16;15.07;;;3.47;;
13252;SDS011;6693;54.370;10.132;2024-03-23T05:38:17;15.00;;;3.35;;
13252;SDS011;6693;54.370;10.132;2024-03-23T05:39:18;19.23;;;4.18;;
13252;SDS011;6693;54.370;10.132;2024-03-23T05:40:18;17.13;;;3.72;;
13252;SDS011;6693;54.370;10.132;2024-03-23T05:41:19;18.98;;;3.38;;
13252;SDS011;6693;54.370;10.132;2024-03-23T05:42:23;17.55;;;4.00;;
13252;SDS011;6693;54.370;10.132;2024-03-23T05:43:24;20.85;;;4.38;;
13252;SDS011;6693;54.370;10.132;2024-03-23T05:44:24;21.33;;;4.10;;
13252;SDS011;6693;54.370;10.132;2024-03-23T05:45:25;15.73;;;3.97;;
13252;SDS011;6693;54.370;10.132;2024-03-23T05:46:26;18.83;;;4.10;;
13252;SDS011;6693;54.370;10.132;2024-03-23T05:47:27;20.90;;;4.45;;
13252;SDS011;6693;54.370;10.132;2024-03-23T05:48:28;16.95;;;3.53;;
13252;SDS011;6693;54.370;10.132;2024-03-23T05:49:29;18.48;;;4.80;;
13252;SDS011;6693;54.370;10.132;2024-03-23T05:50:29;16.52;;;3.65;;
13252;SDS011;6693;54.370;10.132;2024-03-23T05:51:30;20.08;;;4.05;;
13252;SDS011;6693;54.370;10.132;2024-03-23T05:52:32;15.13;;;3.40;;
13252;SDS011;6693;54.370;10.132;2024-03-23T05:53:33;18.23;;;4.30;;
13252;SDS011;6693;54.370;10.132;2024-03-23T05:54:34;17.15;;;3.95;;
13252;SDS011;6693;54.370;10.132;2024-03-23T05:55:35;17.73;;;3.88;;
13252;SDS011;6693;54.370;10.132;2024-03-23T05:56:36;16.17;;;4.22;;
13252;SDS011;6693;54.370;10.132;2024-03-23T05:57:40;20.67;;;4.47;;
13252;SDS011;6693;54.370;10.132;2024-03-23T05:58:40;22.77;;;4.53;;
13252;SDS011;6693;54.370;10.132;2024-03-23T05:59:41;19.10;;;4.25;;
13252;SDS011;6693;54.370;10.132;2024-03-23T06:00:42;22.50;;;4.40;;
13252;SDS011;6693;54.370;10.132;2024-03-23T06:01:43;17.42;;;4.40;;
13252;SDS011;6693;54.370;10.132;2024-03-23T06:02:44;22.52;;;4.20;;
13252;SDS011;6693;54.370;10.132;2024-03-23T06:03:45;25.70;;;5.35;;
13252;SDS011;6693;54.370;10.132;2024-03-23T06:04:46;25.33;;;4.55;;
13252;SDS011;6693;54.370;10.132;2024-03-23T06:05:46;20.02;;;4.22;;
13252;SDS011;6693;54.370;10.132;2024-03-23T06:06:47;15.32;;;4.03;;
13252;SDS011;6693;54.370;10.132;2024-03-23T06:07:48;18.75;;;4.35;;
13252;SDS011;6693;54.370;10.132;2024-03-23T06:08:49;19.08;;;3.83;;
13252;SDS011;6693;54.370;10.132;2024-03-23T06:09:50;17.23;;;4.30;;
13252;SDS011;6693;54.370;10.132;2024-03-23T06:10:51;22.95;;;4.63;;
13252;SDS011;6693;54.370;10.132;2024-03-23T06:11:52;23.67;;;5.45;;
13252;SDS011;6693;54.370;10.132;2024-03-23T06:12:55;19.05;;;4.95;;
13252;SDS011;6693;54.370;10.132;2024-03-23T06:13:56;14.85;;;4.25;;
13252;SDS011;6693;54.370;10.132;2024-03-23T06:14:57;19.27;;;4.10;;
13252;SDS011;6693;54.370;10.132;2024-03-23T06:15:58;22.55;;;4.95;;
13252;SDS011;6693;54.370;10.132;2024-03-23T06:16:59;21.10;;;4.88;;
13252;SDS011;6693;54.370;10.132;2024-03-23T06:18:00;20.10;;;5.07;;
13252;SDS011;6693;54.370;10.132;2024-03-23T06:19:01;20.10;;;4.78;;
13252;SDS011;6693;54.370;10.132;2024-03-23T06:20:02;17.67;;;4.70;;
13252;SDS011;6693;54.370;10.132;2024-03-23T06:21:04;20.52;;;4.55;;
13252;SDS011;6693;54.370;10.132;2024-03-23T06:22:05;20.35;;;4.93;;
13252;SDS011;6693;54.370;10.132;2024-03-23T06:23:06;18.30;;;4.50;;
13252;SDS011;6693;54.370;10.132;2024-03-23T06:24:07;19.70;;;5.47;;
13252;SDS011;6693;54.370;10.132;2024-03-23T06:25:08;23.30;;;5.22;;
13252;SDS011;6693;54.370;10.132;2024-03-23T06:26:09;15.55;;;4.43;;
13252;SDS011;6693;54.370;10.132;2024-03-23T06:27:10;21.00;;;4.60;;
13252;SDS011;6693;54.370;10.132;2024-03-23T06:28:13;25.55;;;5.28;;
13252;SDS011;6693;54.370;10.132;2024-03-23T06:29:14;17.25;;;4.60;;
13252;SDS011;6693;54.370;10.132;2024-03-23T06:30:15;16.40;;;4.05;;
13252;SDS011;6693;54.370;10.132;2024-03-23T06:31:16;17.10;;;4.53;;
13252;SDS011;6693;54.370;10.132;2024-03-23T06:32:17;19.52;;;4.00;;
13252;SDS011;6693;54.370;10.132;2024-03-23T06:33:17;18.77;;;4.00;;
13252;SDS011;6693;54.370;10.132;2024-03-23T06:34:18;21.08;;;4.68;;
13252;SDS011;6693;54.370;10.132;2024-03-23T06:35:19;17.75;;;4.40;;
13252;SDS011;6693;54.370;10.132;2024-03-23T06:36:20;14.93;;;4.88;;
13252;SDS011;6693;54.370;10.132;2024-03-23T06:37:21;18.10;;;5.00;;
13252;SDS011;6693;54.370;10.132;2024-03-23T06:38:21;23.75;;;4.85;;
13252;SDS011;6693;54.370;10.132;2024-03-23T06:39:22;18.50;;;4.97;;
13252;SDS011;6693;54.370;10.132;2024-03-23T06:40:23;19.10;;;4.70;;
13252;SDS011;6693;54.370;10.132;2024-03-23T06:41:24;22.50;;;4.82;;
13252;SDS011;6693;54.370;10.132;2024-03-23T06:42:25;19.15;;;4.32;;
13252;SDS011;6693;54.370;10.132;2024-03-23T06:43:29;16.75;;;4.40;;
13252;SDS011;6693;54.370;10.132;2024-03-23T06:44:29;17.20;;;3.95;;
13252;SDS011;6693;54.370;10.132;2024-03-23T06:45:30;17.73;;;4.72;;
13252;SDS011;6693;54.370;10.132;2024-03-23T06:46:31;19.55;;;5.47;;
13252;SDS011;6693;54.370;10.132;2024-03-23T06:47:32;22.30;;;5.60;;
13252;SDS011;6693;54.370;10.132;2024-03-23T06:48:33;17.08;;;4.70;;
13252;SDS011;6693;54.370;10.132;2024-03-23T06:49:34;21.20;;;5.95;;
13252;SDS011;6693;54.370;10.132;2024-03-23T06:50:35;22.75;;;5.13;;
13252;SDS011;6693;54.370;10.132;2024-03-23T06:51:36;21.70;;;4.90;;
13252;SDS011;6693;54.370;10.132;2024-03-23T06:52:37;17.23;;;4.30;;
13252;SDS011;6693;54.370;10.132;2024-03-23T06:53:38;22.38;;;5.00;;
13252;SDS011;6693;54.370;10.132;2024-03-23T06:54:38;17.80;;;4.32;;
13252;SDS011;6693;54.370;10.132;2024-03-23T06:55:40;17.35;;;5.07;;
13252;SDS011;6693;54.370;10.132;2024-03-23T06:56:41;18.58;;;4.93;;
13252;SDS011;6693;54.370;10.132;2024-03-23T06:57:42;17.50;;;5.28;;